sensor_id;sensor_type;location;lat;lon;timestamp;temperature;humidity
18839;DHT22;9548;56.920;14.804;2022-08-19T00:01:21;19.20;99.90
18839;DHT22;9548;56.920;14.804;2022-08-19T00:03:48;19.10;99.90
18839;DHT22;9548;56.920;14.804;2022-08-19T00:06:16;19.10;99.90
18839;DHT22;9548;56.920;14.804;2022-08-19T00:08:43;19.00;99.90
18839;DHT22;9548;56.920;14.804;2022-08-19T00:11:11;19.00;99.90
18839;DHT22;9548;56.920;14.804;2022-08-19T00:13:38;19.00;99.90
18839;DHT22;9548;56.920;14.804;2022-08-19T00:16:06;19.00;99.90
18839;DHT22;9548;56.920;14.804;2022-08-19T00:18:35;18.90;99.90
18839;DHT22;9548;56.920;14.804;2022-08-19T00:21:02;18.90;99.90
18839;DHT22;9548;56.920;14.804;2022-08-19T00:23:32;18.90;99.90
18839;DHT22;9548;56.920;14.804;2022-08-19T00:26:00;18.90;99.90
18839;DHT22;9548;56.920;14.804;2022-08-19T00:28:27;18.90;99.90
18839;DHT22;9548;56.920;14.804;2022-08-19T00:30:54;18.80;99.90
18839;DHT22;9548;56.920;14.804;2022-08-19T00:33:21;18.80;99.90
18839;DHT22;9548;56.920;14.804;2022-08-19T00:35:50;18.70;99.90
18839;DHT22;9548;56.920;14.804;2022-08-19T00:38:17;18.70;99.90
18839;DHT22;9548;56.920;14.804;2022-08-19T00:40:48;18.70;99.90
18839;DHT22;9548;56.920;14.804;2022-08-19T00:43:19;18.60;99.90
18839;DHT22;9548;56.920;14.804;2022-08-19T00:45:47;18.60;99.90
18839;DHT22;9548;56.920;14.804;2022-08-19T00:48:16;18.50;99.90
18839;DHT22;9548;56.920;14.804;2022-08-19T00:50:44;18.50;99.90
18839;DHT22;9548;56.920;14.804;2022-08-19T00:53:15;18.40;99.90
18839;DHT22;9548;56.920;14.804;2022-08-19T00:55:45;18.40;99.90
18839;DHT22;9548;56.920;14.804;2022-08-19T00:58:15;18.40;99.90
18839;DHT22;9548;56.920;14.804;2022-08-19T01:00:43;18.40;99.90
18839;DHT22;9548;56.920;14.804;2022-08-19T01:03:15;18.40;99.90
18839;DHT22;9548;56.920;14.804;2022-08-19T01:05:44;18.50;99.90
18839;DHT22;9548;56.920;14.804;2022-08-19T01:08:14;18.50;99.90
18839;DHT22;9548;56.920;14.804;2022-08-19T01:10:43;18.50;99.90
18839;DHT22;9548;56.920;14.804;2022-08-19T01:13:13;18.40;99.90
18839;DHT22;9548;56.920;14.804;2022-08-19T01:15:43;18.40;99.90
18839;DHT22;9548;56.920;14.804;2022-08-19T01:18:13;18.40;99.90
18839;DHT22;9548;56.920;14.804;2022-08-19T01:20:41;18.40;99.90
18839;DHT22;9548;56.920;14.804;2022-08-19T01:23:11;18.40;99.90
18839;DHT22;9548;56.920;14.804;2022-08-19T01:25:42;18.30;99.90
18839;DHT22;9548;56.920;14.804;2022-08-19T01:28:16;18.40;99.90
18839;DHT22;9548;56.920;14.804;2022-08-19T01:30:44;18.40;99.90
18839;DHT22;9548;56.920;14.804;2022-08-19T01:33:12;18.40;99.90
18839;DHT22;9548;56.920;14.804;2022-08-19T01:35:40;18.40;99.90
18839;DHT22;9548;56.920;14.804;2022-08-19T01:38:18;18.40;99.90
18839;DHT22;9548;56.920;14.804;2022-08-19T01:40:47;18.40;99.90
18839;DHT22;9548;56.920;14.804;2022-08-19T01:43:14;18.40;99.90
18839;DHT22;9548;56.920;14.804;2022-08-19T01:45:41;18.50;99.90
18839;DHT22;9548;56.920;14.804;2022-08-19T01:48:08;18.40;99.90
18839;DHT22;9548;56.920;14.804;2022-08-19T01:50:36;18.40;99.90
18839;DHT22;9548;56.920;14.804;2022-08-19T01:53:06;18.40;99.90
18839;DHT22;9548;56.920;14.804;2022-08-19T01:55:37;18.40;99.90
18839;DHT22;9548;56.920;14.804;2022-08-19T01:58:06;18.30;99.90
18839;DHT22;9548;56.920;14.804;2022-08-19T02:00:34;18.30;99.90
18839;DHT22;9548;56.920;14.804;2022-08-19T02:03:01;18.30;99.90
18839;DHT22;9548;56.920;14.804;2022-08-19T02:05:28;18.40;99.90
18839;DHT22;9548;56.920;14.804;2022-08-19T02:07:56;18.40;99.90
18839;DHT22;9548;56.920;14.804;2022-08-19T02:10:23;18.40;99.90
18839;DHT22;9548;56.920;14.804;2022-08-19T02:12:51;18.40;99.90
18839;DHT22;9548;56.920;14.804;2022-08-19T02:15:19;18.30;99.90
18839;DHT22;9548;56.920;14.804;2022-08-19T02:17:47;18.30;99.90
18839;DHT22;9548;56.920;14.804;2022-08-19T02:20:15;18.30;99.90
18839;DHT22;9548;56.920;14.804;2022-08-19T02:22:42;18.40;99.90
18839;DHT22;9548;56.920;14.804;2022-08-19T02:25:10;18.40;99.90
18839;DHT22;9548;56.920;14.804;2022-08-19T02:27:37;18.40;99.90
18839;DHT22;9548;56.920;14.804;2022-08-19T02:30:08;18.40;99.90
18839;DHT22;9548;56.920;14.804;2022-08-19T02:32:36;18.40;99.90
18839;DHT22;9548;56.920;14.804;2022-08-19T02:35:03;18.40;99.90
18839;DHT22;9548;56.920;14.804;2022-08-19T02:37:30;18.40;99.90
18839;DHT22;9548;56.920;14.804;2022-08-19T02:40:15;18.50;99.90
18839;DHT22;9548;56.920;14.804;2022-08-19T02:42:43;18.40;99.90
18839;DHT22;9548;56.920;14.804;2022-08-19T02:45:12;18.50;99.90
18839;DHT22;9548;56.920;14.804;2022-08-19T02:47:40;18.40;99.90
18839;DHT22;9548;56.920;14.804;2022-08-19T02:50:07;18.40;99.90
18839;DHT22;9548;56.920;14.804;2022-08-19T02:52:34;18.40;99.90
18839;DHT22;9548;56.920;14.804;2022-08-19T02:55:01;18.30;99.90
18839;DHT22;9548;56.920;14.804;2022-08-19T02:57:30;18.30;99.90
18839;DHT22;9548;56.920;14.804;2022-08-19T02:59:58;18.20;99.90
18839;DHT22;9548;56.920;14.804;2022-08-19T03:02:27;18.20;99.90
18839;DHT22;9548;56.920;14.804;2022-08-19T03:04:54;18.20;99.90
18839;DHT22;9548;56.920;14.804;2022-08-19T03:07:21;18.20;99.90
18839;DHT22;9548;56.920;14.804;2022-08-19T03:09:48;18.10;99.90
18839;DHT22;9548;56.920;14.804;2022-08-19T03:12:15;18.10;99.90
18839;DHT22;9548;56.920;14.804;2022-08-19T03:14:42;18.10;99.90
18839;DHT22;9548;56.920;14.804;2022-08-19T03:17:10;18.10;99.90
18839;DHT22;9548;56.920;14.804;2022-08-19T03:19:38;18.10;99.90
18839;DHT22;9548;56.920;14.804;2022-08-19T03:22:05;18.10;99.90
18839;DHT22;9548;56.920;14.804;2022-08-19T03:24:33;18.00;99.90
18839;DHT22;9548;56.920;14.804;2022-08-19T03:27:00;18.00;99.90
18839;DHT22;9548;56.920;14.804;2022-08-19T03:29:30;18.10;99.90
18839;DHT22;9548;56.920;14.804;2022-08-19T03:31:58;18.00;99.90
18839;DHT22;9548;56.920;14.804;2022-08-19T03:34:28;18.10;99.90
18839;DHT22;9548;56.920;14.804;2022-08-19T03:36:59;18.10;99.90
18839;DHT22;9548;56.920;14.804;2022-08-19T03:39:27;18.00;99.90
18839;DHT22;9548;56.920;14.804;2022-08-19T03:41:54;18.00;99.90
18839;DHT22;9548;56.920;14.804;2022-08-19T03:44:24;18.00;99.90
18839;DHT22;9548;56.920;14.804;2022-08-19T03:46:55;18.00;99.90
18839;DHT22;9548;56.920;14.804;2022-08-19T03:49:23;18.00;99.90
18839;DHT22;9548;56.920;14.804;2022-08-19T03:51:50;18.00;99.90
18839;DHT22;9548;56.920;14.804;2022-08-19T03:54:21;18.00;99.90
18839;DHT22;9548;56.920;14.804;2022-08-19T03:56:50;18.00;99.90
18839;DHT22;9548;56.920;14.804;2022-08-19T03:59:20;18.00;99.90
18839;DHT22;9548;56.920;14.804;2022-08-19T04:01:48;18.00;99.90
18839;DHT22;9548;56.920;14.804;2022-08-19T04:04:15;17.90;99.90
18839;DHT22;9548;56.920;14.804;2022-08-19T04:06:43;17.90;99.90
18839;DHT22;9548;56.920;14.804;2022-08-19T04:09:13;17.90;99.90
18839;DHT22;9548;56.920;14.804;2022-08-19T04:11:43;17.90;99.90
18839;DHT22;9548;56.920;14.804;2022-08-19T04:14:11;17.90;99.90
18839;DHT22;9548;56.920;14.804;2022-08-19T04:16:39;17.90;99.90
18839;DHT22;9548;56.920;14.804;2022-08-19T04:19:06;17.90;99.90
18839;DHT22;9548;56.920;14.804;2022-08-19T04:21:33;17.90;99.90
18839;DHT22;9548;56.920;14.804;2022-08-19T04:24:01;17.90;99.90
18839;DHT22;9548;56.920;14.804;2022-08-19T04:26:30;18.00;99.90
18839;DHT22;9548;56.920;14.804;2022-08-19T04:29:03;18.10;99.90
18839;DHT22;9548;56.920;14.804;2022-08-19T04:31:31;18.10;99.90
18839;DHT22;9548;56.920;14.804;2022-08-19T04:34:03;18.20;99.90
18839;DHT22;9548;56.920;14.804;2022-08-19T04:36:33;18.20;99.90
18839;DHT22;9548;56.920;14.804;2022-08-19T04:39:03;18.20;99.90
18839;DHT22;9548;56.920;14.804;2022-08-19T04:41:30;18.20;99.90
18839;DHT22;9548;56.920;14.804;2022-08-19T04:44:16;18.30;99.90
18839;DHT22;9548;56.920;14.804;2022-08-19T04:46:44;18.30;99.90
18839;DHT22;9548;56.920;14.804;2022-08-19T04:49:11;18.40;99.90
18839;DHT22;9548;56.920;14.804;2022-08-19T04:51:40;18.50;99.90
18839;DHT22;9548;56.920;14.804;2022-08-19T04:54:07;18.50;99.90
18839;DHT22;9548;56.920;14.804;2022-08-19T04:56:35;18.60;99.90
18839;DHT22;9548;56.920;14.804;2022-08-19T04:59:02;18.60;99.90
18839;DHT22;9548;56.920;14.804;2022-08-19T05:01:32;18.70;99.90
18839;DHT22;9548;56.920;14.804;2022-08-19T05:04:03;18.70;99.90
18839;DHT22;9548;56.920;14.804;2022-08-19T05:06:31;18.80;99.90
18839;DHT22;9548;56.920;14.804;2022-08-19T05:08:59;18.90;99.90
18839;DHT22;9548;56.920;14.804;2022-08-19T05:11:28;19.00;99.90
18839;DHT22;9548;56.920;14.804;2022-08-19T05:13:56;19.10;99.90
18839;DHT22;9548;56.920;14.804;2022-08-19T05:16:24;19.20;99.90
18839;DHT22;9548;56.920;14.804;2022-08-19T05:18:53;19.30;99.90
18839;DHT22;9548;56.920;14.804;2022-08-19T05:21:39;19.30;99.90
18839;DHT22;9548;56.920;14.804;2022-08-19T05:24:24;19.40;99.90
18839;DHT22;9548;56.920;14.804;2022-08-19T05:26:52;19.50;99.90
18839;DHT22;9548;56.920;14.804;2022-08-19T05:29:23;19.50;99.90
18839;DHT22;9548;56.920;14.804;2022-08-19T05:31:51;19.60;99.90
18839;DHT22;9548;56.920;14.804;2022-08-19T05:34:21;19.70;99.90
18839;DHT22;9548;56.920;14.804;2022-08-19T05:36:50;19.80;99.90
18839;DHT22;9548;56.920;14.804;2022-08-19T05:39:24;19.90;99.90
18839;DHT22;9548;56.920;14.804;2022-08-19T05:41:53;20.00;99.90
18839;DHT22;9548;56.920;14.804;2022-08-19T05:44:23;20.10;99.90
18839;DHT22;9548;56.920;14.804;2022-08-19T05:46:50;20.10;99.90
18839;DHT22;9548;56.920;14.804;2022-08-19T05:49:21;20.20;99.90
18839;DHT22;9548;56.920;14.804;2022-08-19T05:51:49;20.30;99.90
18839;DHT22;9548;56.920;14.804;2022-08-19T05:54:16;20.40;99.90
18839;DHT22;9548;56.920;14.804;2022-08-19T05:56:44;20.50;99.90
18839;DHT22;9548;56.920;14.804;2022-08-19T05:59:14;20.60;99.90
18839;DHT22;9548;56.920;14.804;2022-08-19T06:01:44;20.70;99.90
18839;DHT22;9548;56.920;14.804;2022-08-19T06:04:12;20.80;99.90
18839;DHT22;9548;56.920;14.804;2022-08-19T06:06:41;20.90;99.90
18839;DHT22;9548;56.920;14.804;2022-08-19T06:09:08;21.00;99.90
18839;DHT22;9548;56.920;14.804;2022-08-19T06:11:37;21.10;99.90
18839;DHT22;9548;56.920;14.804;2022-08-19T06:14:06;21.20;99.90
18839;DHT22;9548;56.920;14.804;2022-08-19T06:16:34;21.30;99.90
18839;DHT22;9548;56.920;14.804;2022-08-19T06:19:06;21.40;99.90
18839;DHT22;9548;56.920;14.804;2022-08-19T06:21:36;21.50;99.90
18839;DHT22;9548;56.920;14.804;2022-08-19T06:24:06;21.60;99.90
18839;DHT22;9548;56.920;14.804;2022-08-19T06:26:34;21.70;99.90
18839;DHT22;9548;56.920;14.804;2022-08-19T06:29:01;21.80;99.90
18839;DHT22;9548;56.920;14.804;2022-08-19T06:31:29;21.90;99.90
18839;DHT22;9548;56.920;14.804;2022-08-19T06:33:59;22.00;99.90
18839;DHT22;9548;56.920;14.804;2022-08-19T06:36:29;22.20;99.90
18839;DHT22;9548;56.920;14.804;2022-08-19T06:38:59;22.20;99.90
18839;DHT22;9548;56.920;14.804;2022-08-19T06:41:28;22.40;99.90
18839;DHT22;9548;56.920;14.804;2022-08-19T06:43:56;22.50;99.90
18839;DHT22;9548;56.920;14.804;2022-08-19T06:46:23;22.60;99.90
18839;DHT22;9548;56.920;14.804;2022-08-19T06:48:51;22.70;99.90
18839;DHT22;9548;56.920;14.804;2022-08-19T06:51:20;22.80;99.90
18839;DHT22;9548;56.920;14.804;2022-08-19T06:53:50;23.00;99.90
18839;DHT22;9548;56.920;14.804;2022-08-19T06:56:20;23.10;99.90
18839;DHT22;9548;56.920;14.804;2022-08-19T06:58:48;23.20;99.90
18839;DHT22;9548;56.920;14.804;2022-08-19T07:01:18;23.30;99.90
18839;DHT22;9548;56.920;14.804;2022-08-19T07:03:45;23.30;99.90
18839;DHT22;9548;56.920;14.804;2022-08-19T07:06:15;23.40;99.90
18839;DHT22;9548;56.920;14.804;2022-08-19T07:08:43;23.50;99.90
18839;DHT22;9548;56.920;14.804;2022-08-19T07:11:12;23.60;99.90
18839;DHT22;9548;56.920;14.804;2022-08-19T07:13:40;23.70;99.90
18839;DHT22;9548;56.920;14.804;2022-08-19T07:16:13;23.80;99.90
18839;DHT22;9548;56.920;14.804;2022-08-19T07:18:41;23.90;99.90
18839;DHT22;9548;56.920;14.804;2022-08-19T07:21:10;24.10;99.90
18839;DHT22;9548;56.920;14.804;2022-08-19T07:23:38;24.10;99.90
18839;DHT22;9548;56.920;14.804;2022-08-19T07:26:06;24.20;99.90
18839;DHT22;9548;56.920;14.804;2022-08-19T07:28:34;24.40;99.90
18839;DHT22;9548;56.920;14.804;2022-08-19T07:31:06;24.50;99.90
18839;DHT22;9548;56.920;14.804;2022-08-19T07:33:35;24.60;99.90
18839;DHT22;9548;56.920;14.804;2022-08-19T07:36:03;24.70;99.90
18839;DHT22;9548;56.920;14.804;2022-08-19T07:38:32;24.80;99.90
18839;DHT22;9548;56.920;14.804;2022-08-19T07:41:00;25.00;99.90
18839;DHT22;9548;56.920;14.804;2022-08-19T07:43:28;25.10;99.90
18839;DHT22;9548;56.920;14.804;2022-08-19T07:45:55;25.30;99.90
18839;DHT22;9548;56.920;14.804;2022-08-19T07:48:23;25.40;99.90
18839;DHT22;9548;56.920;14.804;2022-08-19T07:50:52;25.50;99.90
18839;DHT22;9548;56.920;14.804;2022-08-19T07:53:20;25.60;99.90
18839;DHT22;9548;56.920;14.804;2022-08-19T07:55:47;25.80;99.90
18839;DHT22;9548;56.920;14.804;2022-08-19T07:58:17;25.90;99.90
18839;DHT22;9548;56.920;14.804;2022-08-19T08:00:46;26.00;99.90
18839;DHT22;9548;56.920;14.804;2022-08-19T08:03:15;26.10;99.90
18839;DHT22;9548;56.920;14.804;2022-08-19T08:05:42;26.30;99.90
18839;DHT22;9548;56.920;14.804;2022-08-19T08:08:29;26.40;99.90
18839;DHT22;9548;56.920;14.804;2022-08-19T08:11:15;26.50;99.90
18839;DHT22;9548;56.920;14.804;2022-08-19T08:13:43;26.70;99.90
18839;DHT22;9548;56.920;14.804;2022-08-19T08:16:10;26.80;99.90
18839;DHT22;9548;56.920;14.804;2022-08-19T08:18:37;27.00;99.90
18839;DHT22;9548;56.920;14.804;2022-08-19T08:21:08;27.20;99.90
18839;DHT22;9548;56.920;14.804;2022-08-19T08:23:36;27.10;99.90
18839;DHT22;9548;56.920;14.804;2022-08-19T08:26:04;27.10;99.90
18839;DHT22;9548;56.920;14.804;2022-08-19T08:28:31;27.10;99.90
18839;DHT22;9548;56.920;14.804;2022-08-19T08:30:58;27.10;99.90
18839;DHT22;9548;56.920;14.804;2022-08-19T08:33:27;27.20;99.90
18839;DHT22;9548;56.920;14.804;2022-08-19T08:35:55;27.30;99.90
18839;DHT22;9548;56.920;14.804;2022-08-19T08:38:23;27.40;99.90
18839;DHT22;9548;56.920;14.804;2022-08-19T08:40:55;27.60;99.90
18839;DHT22;9548;56.920;14.804;2022-08-19T08:43:29;27.90;99.90
18839;DHT22;9548;56.920;14.804;2022-08-19T08:46:00;28.10;99.90
18839;DHT22;9548;56.920;14.804;2022-08-19T08:48:35;28.20;99.90
18839;DHT22;9548;56.920;14.804;2022-08-19T08:51:08;28.30;99.90
18839;DHT22;9548;56.920;14.804;2022-08-19T08:53:36;28.10;99.90
18839;DHT22;9548;56.920;14.804;2022-08-19T08:56:07;28.40;99.90
18839;DHT22;9548;56.920;14.804;2022-08-19T08:58:47;28.60;99.90
18839;DHT22;9548;56.920;14.804;2022-08-19T09:01:16;28.80;99.90
18839;DHT22;9548;56.920;14.804;2022-08-19T09:03:43;29.00;99.90
18839;DHT22;9548;56.920;14.804;2022-08-19T09:06:14;29.20;99.90
18839;DHT22;9548;56.920;14.804;2022-08-19T09:08:50;29.40;99.90
18839;DHT22;9548;56.920;14.804;2022-08-19T09:11:37;29.60;99.90
18839;DHT22;9548;56.920;14.804;2022-08-19T09:14:10;29.70;99.90
18839;DHT22;9548;56.920;14.804;2022-08-19T09:16:40;29.80;99.90
18839;DHT22;9548;56.920;14.804;2022-08-19T09:19:08;30.00;99.90
18839;DHT22;9548;56.920;14.804;2022-08-19T09:21:36;30.10;99.90
18839;DHT22;9548;56.920;14.804;2022-08-19T09:24:04;29.80;99.90
18839;DHT22;9548;56.920;14.804;2022-08-19T09:26:33;29.70;99.90
18839;DHT22;9548;56.920;14.804;2022-08-19T09:29:00;29.60;99.90
18839;DHT22;9548;56.920;14.804;2022-08-19T09:31:31;29.90;99.90
18839;DHT22;9548;56.920;14.804;2022-08-19T09:33:59;30.20;99.90
18839;DHT22;9548;56.920;14.804;2022-08-19T09:36:27;30.10;99.90
18839;DHT22;9548;56.920;14.804;2022-08-19T09:38:58;30.20;99.90
18839;DHT22;9548;56.920;14.804;2022-08-19T09:41:27;30.10;99.90
18839;DHT22;9548;56.920;14.804;2022-08-19T09:43:57;30.10;99.90
18839;DHT22;9548;56.920;14.804;2022-08-19T09:46:27;30.00;99.90
18839;DHT22;9548;56.920;14.804;2022-08-19T09:49:00;30.10;99.90
18839;DHT22;9548;56.920;14.804;2022-08-19T09:51:27;30.60;99.90
18839;DHT22;9548;56.920;14.804;2022-08-19T09:53:59;31.10;99.90
18839;DHT22;9548;56.920;14.804;2022-08-19T09:56:27;31.00;99.90
18839;DHT22;9548;56.920;14.804;2022-08-19T09:58:57;30.90;99.90
18839;DHT22;9548;56.920;14.804;2022-08-19T10:01:28;30.90;99.90
18839;DHT22;9548;56.920;14.804;2022-08-19T10:03:58;31.20;99.90
18839;DHT22;9548;56.920;14.804;2022-08-19T10:06:28;30.90;99.90
18839;DHT22;9548;56.920;14.804;2022-08-19T10:08:58;30.90;99.90
18839;DHT22;9548;56.920;14.804;2022-08-19T10:11:25;30.50;99.90
18839;DHT22;9548;56.920;14.804;2022-08-19T10:13:55;30.20;99.90
18839;DHT22;9548;56.920;14.804;2022-08-19T10:16:23;30.20;99.90
18839;DHT22;9548;56.920;14.804;2022-08-19T10:18:51;30.20;99.90
18839;DHT22;9548;56.920;14.804;2022-08-19T10:21:20;29.90;99.90
18839;DHT22;9548;56.920;14.804;2022-08-19T10:23:52;30.20;99.90
18839;DHT22;9548;56.920;14.804;2022-08-19T10:26:22;30.20;99.90
18839;DHT22;9548;56.920;14.804;2022-08-19T10:28:49;30.40;99.90
18839;DHT22;9548;56.920;14.804;2022-08-19T10:31:19;30.60;99.90
18839;DHT22;9548;56.920;14.804;2022-08-19T10:33:47;30.80;99.90
18839;DHT22;9548;56.920;14.804;2022-08-19T10:36:16;30.80;99.90
18839;DHT22;9548;56.920;14.804;2022-08-19T10:38:44;31.10;99.90
18839;DHT22;9548;56.920;14.804;2022-08-19T10:41:14;31.30;99.90
18839;DHT22;9548;56.920;14.804;2022-08-19T10:43:41;31.70;99.90
18839;DHT22;9548;56.920;14.804;2022-08-19T10:46:13;31.90;99.90
18839;DHT22;9548;56.920;14.804;2022-08-19T10:48:42;32.00;99.90
18839;DHT22;9548;56.920;14.804;2022-08-19T10:51:10;32.10;99.90
18839;DHT22;9548;56.920;14.804;2022-08-19T10:53:56;32.00;99.90
18839;DHT22;9548;56.920;14.804;2022-08-19T10:56:24;31.50;99.90
18839;DHT22;9548;56.920;14.804;2022-08-19T10:59:09;31.40;99.90
18839;DHT22;9548;56.920;14.804;2022-08-19T11:01:36;31.40;99.90
18839;DHT22;9548;56.920;14.804;2022-08-19T11:04:05;31.20;99.90
18839;DHT22;9548;56.920;14.804;2022-08-19T11:06:34;30.90;99.90
18839;DHT22;9548;56.920;14.804;2022-08-19T11:09:02;30.90;99.90
18839;DHT22;9548;56.920;14.804;2022-08-19T11:11:29;30.90;99.90
18839;DHT22;9548;56.920;14.804;2022-08-19T11:13:57;30.80;99.90
18839;DHT22;9548;56.920;14.804;2022-08-19T11:16:26;30.90;99.90
18839;DHT22;9548;56.920;14.804;2022-08-19T11:18:57;30.80;99.90
18839;DHT22;9548;56.920;14.804;2022-08-19T11:21:28;30.80;99.90
18839;DHT22;9548;56.920;14.804;2022-08-19T11:24:00;30.60;99.90
18839;DHT22;9548;56.920;14.804;2022-08-19T11:26:28;30.50;99.90
18839;DHT22;9548;56.920;14.804;2022-08-19T11:28:56;30.30;99.90
18839;DHT22;9548;56.920;14.804;2022-08-19T11:31:26;30.10;99.90
18839;DHT22;9548;56.920;14.804;2022-08-19T11:33:55;29.90;99.90
18839;DHT22;9548;56.920;14.804;2022-08-19T11:36:22;30.10;99.90
18839;DHT22;9548;56.920;14.804;2022-08-19T11:38:51;30.10;99.90
18839;DHT22;9548;56.920;14.804;2022-08-19T11:41:20;30.10;99.90
18839;DHT22;9548;56.920;14.804;2022-08-19T11:43:48;30.10;99.90
18839;DHT22;9548;56.920;14.804;2022-08-19T11:46:16;30.10;99.90
18839;DHT22;9548;56.920;14.804;2022-08-19T11:48:44;30.10;99.90
18839;DHT22;9548;56.920;14.804;2022-08-19T11:51:12;30.20;99.90
18839;DHT22;9548;56.920;14.804;2022-08-19T11:53:40;30.00;99.90
18839;DHT22;9548;56.920;14.804;2022-08-19T11:56:09;30.00;99.90
18839;DHT22;9548;56.920;14.804;2022-08-19T11:58:36;30.20;99.90
18839;DHT22;9548;56.920;14.804;2022-08-19T12:01:05;30.10;99.90
18839;DHT22;9548;56.920;14.804;2022-08-19T12:03:33;30.20;99.90
18839;DHT22;9548;56.920;14.804;2022-08-19T12:06:04;30.10;99.90
18839;DHT22;9548;56.920;14.804;2022-08-19T12:08:31;30.10;99.90
18839;DHT22;9548;56.920;14.804;2022-08-19T12:10:59;29.90;99.90
18839;DHT22;9548;56.920;14.804;2022-08-19T12:13:29;29.70;99.90
18839;DHT22;9548;56.920;14.804;2022-08-19T12:15:57;29.60;99.90
18839;DHT22;9548;56.920;14.804;2022-08-19T12:18:25;29.50;99.90
18839;DHT22;9548;56.920;14.804;2022-08-19T12:20:53;29.30;99.90
18839;DHT22;9548;56.920;14.804;2022-08-19T12:23:21;29.20;99.90
18839;DHT22;9548;56.920;14.804;2022-08-19T12:25:49;29.20;99.90
18839;DHT22;9548;56.920;14.804;2022-08-19T12:28:17;29.20;99.90
18839;DHT22;9548;56.920;14.804;2022-08-19T12:30:46;29.20;99.90
18839;DHT22;9548;56.920;14.804;2022-08-19T12:33:14;29.20;99.90
18839;DHT22;9548;56.920;14.804;2022-08-19T12:35:41;29.30;99.90
18839;DHT22;9548;56.920;14.804;2022-08-19T12:38:12;29.30;99.90
18839;DHT22;9548;56.920;14.804;2022-08-19T12:40:40;29.30;99.90
18839;DHT22;9548;56.920;14.804;2022-08-19T12:43:08;29.20;99.90
18839;DHT22;9548;56.920;14.804;2022-08-19T12:45:35;29.20;99.90
18839;DHT22;9548;56.920;14.804;2022-08-19T12:48:04;29.10;99.90
18839;DHT22;9548;56.920;14.804;2022-08-19T12:50:31;29.10;99.90
18839;DHT22;9548;56.920;14.804;2022-08-19T12:52:58;29.10;99.90
18839;DHT22;9548;56.920;14.804;2022-08-19T12:55:25;29.20;99.90
18839;DHT22;9548;56.920;14.804;2022-08-19T12:57:54;29.20;99.90
18839;DHT22;9548;56.920;14.804;2022-08-19T13:00:21;29.30;99.90
18839;DHT22;9548;56.920;14.804;2022-08-19T13:02:50;29.50;99.90
18839;DHT22;9548;56.920;14.804;2022-08-19T13:05:21;30.00;99.90
18839;DHT22;9548;56.920;14.804;2022-08-19T13:07:49;30.60;99.90
18839;DHT22;9548;56.920;14.804;2022-08-19T13:10:18;31.40;99.90
18839;DHT22;9548;56.920;14.804;2022-08-19T13:12:48;32.50;99.90
18839;DHT22;9548;56.920;14.804;2022-08-19T13:15:17;33.80;99.90
18839;DHT22;9548;56.920;14.804;2022-08-19T13:17:45;34.90;98.50
18839;DHT22;9548;56.920;14.804;2022-08-19T13:20:15;35.70;96.80
18839;DHT22;9548;56.920;14.804;2022-08-19T13:22:44;35.20;98.90
18839;DHT22;9548;56.920;14.804;2022-08-19T13:25:12;34.20;99.90
18839;DHT22;9548;56.920;14.804;2022-08-19T13:27:42;33.10;99.90
18839;DHT22;9548;56.920;14.804;2022-08-19T13:30:11;32.60;99.90
18839;DHT22;9548;56.920;14.804;2022-08-19T13:32:56;32.70;99.90
18839;DHT22;9548;56.920;14.804;2022-08-19T13:35:42;33.20;99.90
18839;DHT22;9548;56.920;14.804;2022-08-19T13:38:12;34.20;99.90
18839;DHT22;9548;56.920;14.804;2022-08-19T13:40:40;34.10;99.90
18839;DHT22;9548;56.920;14.804;2022-08-19T13:43:08;33.90;99.90
18839;DHT22;9548;56.920;14.804;2022-08-19T13:45:36;33.70;99.90
18839;DHT22;9548;56.920;14.804;2022-08-19T13:48:05;33.60;99.90
18839;DHT22;9548;56.920;14.804;2022-08-19T13:50:37;33.90;99.90
18839;DHT22;9548;56.920;14.804;2022-08-19T13:53:06;34.40;99.90
18839;DHT22;9548;56.920;14.804;2022-08-19T13:55:35;34.50;99.90
18839;DHT22;9548;56.920;14.804;2022-08-19T13:58:03;34.50;99.90
18839;DHT22;9548;56.920;14.804;2022-08-19T14:00:32;34.40;99.90
18839;DHT22;9548;56.920;14.804;2022-08-19T14:02:59;34.00;99.90
18839;DHT22;9548;56.920;14.804;2022-08-19T14:05:28;34.00;99.90
18839;DHT22;9548;56.920;14.804;2022-08-19T14:07:56;34.20;99.90
18839;DHT22;9548;56.920;14.804;2022-08-19T14:10:24;33.70;99.90
18839;DHT22;9548;56.920;14.804;2022-08-19T14:12:54;33.60;99.90
18839;DHT22;9548;56.920;14.804;2022-08-19T14:15:24;33.00;99.90
18839;DHT22;9548;56.920;14.804;2022-08-19T14:17:51;32.40;99.90
18839;DHT22;9548;56.920;14.804;2022-08-19T14:20:18;31.70;99.90
18839;DHT22;9548;56.920;14.804;2022-08-19T14:22:47;31.10;99.90
18839;DHT22;9548;56.920;14.804;2022-08-19T14:25:19;30.70;99.90
18839;DHT22;9548;56.920;14.804;2022-08-19T14:27:47;30.30;99.90
18839;DHT22;9548;56.920;14.804;2022-08-19T14:30:18;30.00;99.90
18839;DHT22;9548;56.920;14.804;2022-08-19T14:32:45;29.90;99.90
18839;DHT22;9548;56.920;14.804;2022-08-19T14:35:14;29.80;99.90
18839;DHT22;9548;56.920;14.804;2022-08-19T14:37:42;29.70;99.90
18839;DHT22;9548;56.920;14.804;2022-08-19T14:40:11;29.50;99.90
18839;DHT22;9548;56.920;14.804;2022-08-19T14:42:38;29.40;99.90
18839;DHT22;9548;56.920;14.804;2022-08-19T14:45:06;29.20;99.90
18839;DHT22;9548;56.920;14.804;2022-08-19T14:47:34;28.90;99.90
18839;DHT22;9548;56.920;14.804;2022-08-19T14:50:02;28.50;99.90
18839;DHT22;9548;56.920;14.804;2022-08-19T14:52:29;27.90;99.90
18839;DHT22;9548;56.920;14.804;2022-08-19T14:54:56;27.20;99.90
18839;DHT22;9548;56.920;14.804;2022-08-19T14:57:23;26.40;99.90
18839;DHT22;9548;56.920;14.804;2022-08-19T14:59:50;25.20;99.90
18839;DHT22;9548;56.920;14.804;2022-08-19T15:02:17;24.10;99.90
18839;DHT22;9548;56.920;14.804;2022-08-19T15:04:47;23.10;99.90
18839;DHT22;9548;56.920;14.804;2022-08-19T15:07:14;21.60;99.90
18839;DHT22;9548;56.920;14.804;2022-08-19T15:09:41;20.50;99.90
18839;DHT22;9548;56.920;14.804;2022-08-19T15:12:08;19.60;99.90
18839;DHT22;9548;56.920;14.804;2022-08-19T15:14:36;19.10;99.90
18839;DHT22;9548;56.920;14.804;2022-08-19T15:17:04;18.80;99.90
18839;DHT22;9548;56.920;14.804;2022-08-19T15:19:32;18.60;99.90
18839;DHT22;9548;56.920;14.804;2022-08-19T15:22:02;18.50;99.90
18839;DHT22;9548;56.920;14.804;2022-08-19T15:24:29;18.50;99.90
18839;DHT22;9548;56.920;14.804;2022-08-19T15:26:57;18.50;99.90
18839;DHT22;9548;56.920;14.804;2022-08-19T15:29:24;18.60;99.90
18839;DHT22;9548;56.920;14.804;2022-08-19T15:31:53;18.60;99.90
18839;DHT22;9548;56.920;14.804;2022-08-19T15:34:22;18.70;99.90
18839;DHT22;9548;56.920;14.804;2022-08-19T15:36:50;18.70;99.90
18839;DHT22;9548;56.920;14.804;2022-08-19T15:39:18;18.70;99.90
18839;DHT22;9548;56.920;14.804;2022-08-19T15:41:46;18.70;99.90